sensor_id;sensor_type;location;lat;lon;timestamp;P1;durP1;ratioP1;P2;durP2;ratioP2
70148;SDS011;57514;52.164;5.282;2023-04-01T00:01:51;23.88;;;6.03;;
70148;SDS011;57514;52.164;5.282;2023-04-01T00:04:18;19.08;;;7.28;;
70148;SDS011;57514;52.164;5.282;2023-04-01T00:06:46;24.50;;;8.55;;
70148;SDS011;57514;52.164;5.282;2023-04-01T00:09:14;15.05;;;6.22;;
70148;SDS011;57514;52.164;5.282;2023-04-01T00:11:41;18.67;;;6.70;;
70148;SDS011;57514;52.164;5.282;2023-04-01T00:14:09;17.80;;;5.43;;
70148;SDS011;57514;52.164;5.282;2023-04-01T00:16:36;24.67;;;7.68;;
70148;SDS011;57514;52.164;5.282;2023-04-01T00:19:04;23.42;;;6.30;;
70148;SDS011;57514;52.164;5.282;2023-04-01T00:21:31;25.23;;;6.70;;
70148;SDS011;57514;52.164;5.282;2023-04-01T00:23:58;14.40;;;5.35;;
70148;SDS011;57514;52.164;5.282;2023-04-01T00:26:27;23.08;;;7.20;;
70148;SDS011;57514;52.164;5.282;2023-04-01T00:28:54;23.02;;;7.25;;
70148;SDS011;57514;52.164;5.282;2023-04-01T00:31:22;12.32;;;4.03;;
70148;SDS011;57514;52.164;5.282;2023-04-01T00:33:50;16.88;;;5.88;;
70148;SDS011;57514;52.164;5.282;2023-04-01T00:36:19;23.75;;;6.45;;
70148;SDS011;57514;52.164;5.282;2023-04-01T00:38:48;20.77;;;6.10;;
70148;SDS011;57514;52.164;5.282;2023-04-01T00:41:16;21.33;;;5.97;;
70148;SDS011;57514;52.164;5.282;2023-04-01T00:43:44;26.83;;;8.18;;
70148;SDS011;57514;52.164;5.282;2023-04-01T00:46:13;33.55;;;8.32;;
70148;SDS011;57514;52.164;5.282;2023-04-01T00:48:44;20.52;;;6.03;;
70148;SDS011;57514;52.164;5.282;2023-04-01T00:51:22;29.35;;;9.07;;
70148;SDS011;57514;52.164;5.282;2023-04-01T00:53:51;24.02;;;7.47;;
70148;SDS011;57514;52.164;5.282;2023-04-01T00:56:20;20.73;;;8.07;;
70148;SDS011;57514;52.164;5.282;2023-04-01T00:58:50;17.30;;;5.88;;
70148;SDS011;57514;52.164;5.282;2023-04-01T01:01:19;26.52;;;8.63;;
70148;SDS011;57514;52.164;5.282;2023-04-01T01:03:47;25.55;;;8.02;;
70148;SDS011;57514;52.164;5.282;2023-04-01T01:12:16;20.55;;;6.28;;
70148;SDS011;57514;52.164;5.282;2023-04-01T01:17:18;13.75;;;5.28;;
70148;SDS011;57514;52.164;5.282;2023-04-01T01:22:29;20.85;;;6.75;;
70148;SDS011;57514;52.164;5.282;2023-04-01T01:27:48;11.13;;;4.28;;
70148;SDS011;57514;52.164;5.282;2023-04-01T01:33:12;10.20;;;4.43;;
70148;SDS011;57514;52.164;5.282;2023-04-01T01:35:49;12.60;;;4.53;;
70148;SDS011;57514;52.164;5.282;2023-04-01T01:38:19;20.70;;;7.10;;
70148;SDS011;57514;52.164;5.282;2023-04-01T01:40:55;14.05;;;4.80;;
70148;SDS011;57514;52.164;5.282;2023-04-01T01:43:25;12.00;;;3.95;;
70148;SDS011;57514;52.164;5.282;2023-04-01T01:45:57;14.23;;;4.72;;
70148;SDS011;57514;52.164;5.282;2023-04-01T01:48:27;13.23;;;3.92;;
70148;SDS011;57514;52.164;5.282;2023-04-01T01:50:54;11.80;;;3.95;;
70148;SDS011;57514;52.164;5.282;2023-04-01T01:53:22;9.80;;;2.58;;
70148;SDS011;57514;52.164;5.282;2023-04-01T01:55:49;12.73;;;4.35;;
70148;SDS011;57514;52.164;5.282;2023-04-01T02:03:21;11.05;;;3.83;;
70148;SDS011;57514;52.164;5.282;2023-04-01T02:05:51;12.35;;;4.47;;
70148;SDS011;57514;52.164;5.282;2023-04-01T02:08:26;11.07;;;3.28;;
70148;SDS011;57514;52.164;5.282;2023-04-01T02:10:59;11.15;;;3.45;;
70148;SDS011;57514;52.164;5.282;2023-04-01T02:13:38;13.25;;;3.83;;
70148;SDS011;57514;52.164;5.282;2023-04-01T02:16:10;13.63;;;4.57;;
70148;SDS011;57514;52.164;5.282;2023-04-01T02:18:39;10.23;;;3.60;;
70148;SDS011;57514;52.164;5.282;2023-04-01T02:21:07;10.50;;;4.22;;
70148;SDS011;57514;52.164;5.282;2023-04-01T02:23:36;10.98;;;3.92;;
70148;SDS011;57514;52.164;5.282;2023-04-01T02:26:05;6.65;;;2.42;;
70148;SDS011;57514;52.164;5.282;2023-04-01T02:28:34;10.13;;;3.83;;
70148;SDS011;57514;52.164;5.282;2023-04-01T02:31:02;11.27;;;3.65;;
70148;SDS011;57514;52.164;5.282;2023-04-01T02:33:30;10.38;;;3.55;;
70148;SDS011;57514;52.164;5.282;2023-04-01T02:35:58;7.88;;;2.95;;
70148;SDS011;57514;52.164;5.282;2023-04-01T02:38:25;7.68;;;2.53;;
70148;SDS011;57514;52.164;5.282;2023-04-01T02:40:57;11.10;;;3.47;;
70148;SDS011;57514;52.164;5.282;2023-04-01T02:43:25;10.90;;;4.15;;
70148;SDS011;57514;52.164;5.282;2023-04-01T02:45:53;10.57;;;3.45;;
70148;SDS011;57514;52.164;5.282;2023-04-01T02:48:20;8.93;;;3.00;;
70148;SDS011;57514;52.164;5.282;2023-04-01T02:50:47;11.05;;;3.72;;
70148;SDS011;57514;52.164;5.282;2023-04-01T02:53:15;11.20;;;3.92;;
70148;SDS011;57514;52.164;5.282;2023-04-01T02:55:42;12.70;;;3.60;;
70148;SDS011;57514;52.164;5.282;2023-04-01T02:58:11;6.25;;;2.25;;
70148;SDS011;57514;52.164;5.282;2023-04-01T03:00:38;10.43;;;3.13;;
70148;SDS011;57514;52.164;5.282;2023-04-01T03:03:06;11.82;;;3.35;;
70148;SDS011;57514;52.164;5.282;2023-04-01T03:05:33;14.32;;;4.15;;
70148;SDS011;57514;52.164;5.282;2023-04-01T03:08:01;14.35;;;4.18;;
70148;SDS011;57514;52.164;5.282;2023-04-01T03:10:28;14.82;;;5.00;;
70148;SDS011;57514;52.164;5.282;2023-04-01T03:12:56;17.10;;;6.60;;
70148;SDS011;57514;52.164;5.282;2023-04-01T03:15:23;17.40;;;5.78;;
70148;SDS011;57514;52.164;5.282;2023-04-01T03:17:50;23.60;;;6.95;;
70148;SDS011;57514;52.164;5.282;2023-04-01T03:20:18;26.15;;;9.00;;
70148;SDS011;57514;52.164;5.282;2023-04-01T03:22:45;20.75;;;6.60;;
70148;SDS011;57514;52.164;5.282;2023-04-01T03:25:13;12.95;;;4.82;;
70148;SDS011;57514;52.164;5.282;2023-04-01T03:27:40;28.92;;;9.15;;
70148;SDS011;57514;52.164;5.282;2023-04-01T03:30:08;25.95;;;9.48;;
70148;SDS011;57514;52.164;5.282;2023-04-01T03:32:43;25.15;;;9.43;;
70148;SDS011;57514;52.164;5.282;2023-04-01T03:35:11;34.85;;;10.20;;
70148;SDS011;57514;52.164;5.282;2023-04-01T03:37:38;30.95;;;10.55;;
70148;SDS011;57514;52.164;5.282;2023-04-01T03:40:06;32.63;;;11.30;;
70148;SDS011;57514;52.164;5.282;2023-04-01T03:42:33;32.03;;;9.57;;
70148;SDS011;57514;52.164;5.282;2023-04-01T03:45:02;34.30;;;9.52;;
70148;SDS011;57514;52.164;5.282;2023-04-01T03:47:30;34.45;;;11.25;;
70148;SDS011;57514;52.164;5.282;2023-04-01T03:49:57;33.60;;;10.60;;
70148;SDS011;57514;52.164;5.282;2023-04-01T03:52:25;41.33;;;9.27;;
70148;SDS011;57514;52.164;5.282;2023-04-01T03:54:52;30.60;;;9.82;;
70148;SDS011;57514;52.164;5.282;2023-04-01T03:57:20;28.08;;;8.35;;
70148;SDS011;57514;52.164;5.282;2023-04-01T03:59:47;32.33;;;8.75;;
70148;SDS011;57514;52.164;5.282;2023-04-01T04:02:15;21.20;;;6.72;;
70148;SDS011;57514;52.164;5.282;2023-04-01T04:04:42;21.17;;;6.22;;
70148;SDS011;57514;52.164;5.282;2023-04-01T04:07:09;23.75;;;6.65;;
70148;SDS011;57514;52.164;5.282;2023-04-01T04:10:03;22.02;;;7.80;;
70148;SDS011;57514;52.164;5.282;2023-04-01T04:12:30;19.33;;;6.63;;
70148;SDS011;57514;52.164;5.282;2023-04-01T04:14:58;22.40;;;7.28;;
70148;SDS011;57514;52.164;5.282;2023-04-01T04:17:25;21.98;;;6.10;;
70148;SDS011;57514;52.164;5.282;2023-04-01T04:19:52;25.33;;;7.68;;
70148;SDS011;57514;52.164;5.282;2023-04-01T04:22:20;26.42;;;7.68;;
70148;SDS011;57514;52.164;5.282;2023-04-01T04:24:48;21.80;;;6.75;;
70148;SDS011;57514;52.164;5.282;2023-04-01T04:27:16;24.65;;;6.20;;
70148;SDS011;57514;52.164;5.282;2023-04-01T04:29:53;18.60;;;5.35;;
70148;SDS011;57514;52.164;5.282;2023-04-01T04:32:20;17.27;;;4.82;;
70148;SDS011;57514;52.164;5.282;2023-04-01T04:34:48;15.20;;;4.15;;
70148;SDS011;57514;52.164;5.282;2023-04-01T04:37:15;14.48;;;3.65;;
70148;SDS011;57514;52.164;5.282;2023-04-01T04:39:42;11.40;;;3.97;;
70148;SDS011;57514;52.164;5.282;2023-04-01T04:42:09;11.55;;;3.42;;
70148;SDS011;57514;52.164;5.282;2023-04-01T04:44:37;10.50;;;3.15;;
70148;SDS011;57514;52.164;5.282;2023-04-01T04:47:04;12.35;;;3.00;;
70148;SDS011;57514;52.164;5.282;2023-04-01T04:49:31;15.18;;;3.47;;
70148;SDS011;57514;52.164;5.282;2023-04-01T04:52:04;12.30;;;3.35;;
70148;SDS011;57514;52.164;5.282;2023-04-01T04:54:31;13.70;;;3.95;;
70148;SDS011;57514;52.164;5.282;2023-04-01T04:57:00;13.68;;;3.85;;
70148;SDS011;57514;52.164;5.282;2023-04-01T04:59:32;12.85;;;4.00;;
70148;SDS011;57514;52.164;5.282;2023-04-01T05:02:12;14.38;;;4.03;;
70148;SDS011;57514;52.164;5.282;2023-04-01T05:04:39;14.02;;;4.45;;
70148;SDS011;57514;52.164;5.282;2023-04-01T05:07:08;19.70;;;5.05;;
70148;SDS011;57514;52.164;5.282;2023-04-01T05:09:36;14.73;;;4.60;;
70148;SDS011;57514;52.164;5.282;2023-04-01T05:12:03;16.95;;;4.72;;
70148;SDS011;57514;52.164;5.282;2023-04-01T05:14:50;16.65;;;5.38;;
70148;SDS011;57514;52.164;5.282;2023-04-01T05:17:17;17.15;;;4.93;;
70148;SDS011;57514;52.164;5.282;2023-04-01T05:19:45;17.92;;;4.80;;
70148;SDS011;57514;52.164;5.282;2023-04-01T05:22:12;14.35;;;4.25;;
70148;SDS011;57514;52.164;5.282;2023-04-01T05:24:39;15.90;;;4.25;;
70148;SDS011;57514;52.164;5.282;2023-04-01T05:27:07;15.55;;;4.43;;
70148;SDS011;57514;52.164;5.282;2023-04-01T05:29:38;12.43;;;3.70;;
70148;SDS011;57514;52.164;5.282;2023-04-01T05:32:08;16.30;;;4.28;;
70148;SDS011;57514;52.164;5.282;2023-04-01T05:34:35;15.82;;;4.00;;
70148;SDS011;57514;52.164;5.282;2023-04-01T05:37:03;15.63;;;4.38;;
70148;SDS011;57514;52.164;5.282;2023-04-01T05:39:30;16.58;;;4.60;;
70148;SDS011;57514;52.164;5.282;2023-04-01T05:41:57;14.85;;;4.47;;
70148;SDS011;57514;52.164;5.282;2023-04-01T05:44:25;17.83;;;4.18;;
70148;SDS011;57514;52.164;5.282;2023-04-01T05:47:02;14.88;;;4.47;;
70148;SDS011;57514;52.164;5.282;2023-04-01T05:49:30;17.38;;;4.47;;
70148;SDS011;57514;52.164;5.282;2023-04-01T05:52:00;15.20;;;4.22;;
70148;SDS011;57514;52.164;5.282;2023-04-01T05:54:28;13.52;;;4.40;;
70148;SDS011;57514;52.164;5.282;2023-04-01T05:56:56;12.85;;;4.03;;
70148;SDS011;57514;52.164;5.282;2023-04-01T05:59:23;12.52;;;3.72;;
70148;SDS011;57514;52.164;5.282;2023-04-01T06:01:51;14.23;;;4.55;;
70148;SDS011;57514;52.164;5.282;2023-04-01T06:04:19;14.85;;;4.95;;
70148;SDS011;57514;52.164;5.282;2023-04-01T06:06:46;20.00;;;4.57;;
70148;SDS011;57514;52.164;5.282;2023-04-01T06:09:15;13.23;;;4.50;;
70148;SDS011;57514;52.164;5.282;2023-04-01T06:14:43;16.15;;;4.20;;
70148;SDS011;57514;52.164;5.282;2023-04-01T06:25:14;12.68;;;3.80;;
70148;SDS011;57514;52.164;5.282;2023-04-01T06:41:21;11.98;;;3.28;;
70148;SDS011;57514;52.164;5.282;2023-04-01T06:43:54;10.38;;;3.00;;
70148;SDS011;57514;52.164;5.282;2023-04-01T06:46:57;14.55;;;3.28;;
70148;SDS011;57514;52.164;5.282;2023-04-01T06:55:44;8.65;;;2.50;;
70148;SDS011;57514;52.164;5.282;2023-04-01T06:58:25;9.93;;;2.95;;
70148;SDS011;57514;52.164;5.282;2023-04-01T07:00:54;11.60;;;3.15;;
70148;SDS011;57514;52.164;5.282;2023-04-01T07:03:29;8.07;;;2.72;;
70148;SDS011;57514;52.164;5.282;2023-04-01T07:08:27;10.45;;;2.92;;
70148;SDS011;57514;52.164;5.282;2023-04-01T07:10:57;9.38;;;3.30;;
70148;SDS011;57514;52.164;5.282;2023-04-01T07:18:48;9.93;;;3.15;;
70148;SDS011;57514;52.164;5.282;2023-04-01T07:21:40;10.23;;;3.17;;
70148;SDS011;57514;52.164;5.282;2023-04-01T07:24:15;11.23;;;3.75;;
70148;SDS011;57514;52.164;5.282;2023-04-01T07:26:55;12.05;;;3.30;;
70148;SDS011;57514;52.164;5.282;2023-04-01T07:29:26;10.88;;;3.63;;
70148;SDS011;57514;52.164;5.282;2023-04-01T07:32:14;12.73;;;4.15;;
70148;SDS011;57514;52.164;5.282;2023-04-01T07:42:55;15.52;;;4.93;;
70148;SDS011;57514;52.164;5.282;2023-04-01T07:45:30;15.10;;;4.50;;
70148;SDS011;57514;52.164;5.282;2023-04-01T08:02:01;17.67;;;5.30;;
70148;SDS011;57514;52.164;5.282;2023-04-01T08:07:20;17.95;;;5.35;;
70148;SDS011;57514;52.164;5.282;2023-04-01T08:10:13;19.52;;;6.07;;
70148;SDS011;57514;52.164;5.282;2023-04-01T08:13:22;20.35;;;5.65;;
70148;SDS011;57514;52.164;5.282;2023-04-01T08:21:26;23.23;;;5.60;;
70148;SDS011;57514;52.164;5.282;2023-04-01T08:23:58;20.52;;;6.60;;
70148;SDS011;57514;52.164;5.282;2023-04-01T08:29:14;25.40;;;6.38;;
70148;SDS011;57514;52.164;5.282;2023-04-01T08:31:48;19.70;;;5.38;;
70148;SDS011;57514;52.164;5.282;2023-04-01T08:34:20;15.90;;;5.43;;
70148;SDS011;57514;52.164;5.282;2023-04-01T08:36:53;16.55;;;5.10;;
70148;SDS011;57514;52.164;5.282;2023-04-01T08:39:28;14.55;;;5.10;;
70148;SDS011;57514;52.164;5.282;2023-04-01T08:45:34;20.08;;;9.95;;
70148;SDS011;57514;52.164;5.282;2023-04-01T08:56:20;16.02;;;6.93;;
70148;SDS011;57514;52.164;5.282;2023-04-01T09:10:53;14.68;;;5.00;;
70148;SDS011;57514;52.164;5.282;2023-04-01T09:13:56;14.40;;;6.82;;
70148;SDS011;57514;52.164;5.282;2023-04-01T09:16:29;18.25;;;8.60;;
70148;SDS011;57514;52.164;5.282;2023-04-01T09:24:30;28.80;;;14.18;;
70148;SDS011;57514;52.164;5.282;2023-04-01T09:33:30;12.07;;;4.28;;
70148;SDS011;57514;52.164;5.282;2023-04-01T11:01:22;9.55;;;3.72;;
70148;SDS011;57514;52.164;5.282;2023-04-01T11:13:14;6.65;;;2.70;;
70148;SDS011;57514;52.164;5.282;2023-04-01T11:18:55;6.28;;;2.70;;
70148;SDS011;57514;52.164;5.282;2023-04-01T11:35:55;6.57;;;3.13;;
70148;SDS011;57514;52.164;5.282;2023-04-01T11:50:58;8.38;;;3.15;;
70148;SDS011;57514;52.164;5.282;2023-04-01T11:54:31;8.35;;;3.58;;
70148;SDS011;57514;52.164;5.282;2023-04-01T11:57:03;12.05;;;3.90;;
70148;SDS011;57514;52.164;5.282;2023-04-01T12:05:11;9.40;;;4.20;;
70148;SDS011;57514;52.164;5.282;2023-04-01T12:08:01;10.63;;;4.72;;
70148;SDS011;57514;52.164;5.282;2023-04-01T12:10:39;10.27;;;4.53;;
70148;SDS011;57514;52.164;5.282;2023-04-01T12:18:29;10.05;;;4.15;;
70148;SDS011;57514;52.164;5.282;2023-04-01T12:21:02;9.65;;;4.00;;
70148;SDS011;57514;52.164;5.282;2023-04-01T12:36:56;13.13;;;4.97;;
70148;SDS011;57514;52.164;5.282;2023-04-01T12:42:17;11.68;;;5.57;;
70148;SDS011;57514;52.164;5.282;2023-04-01T12:48:11;12.52;;;5.32;;
70148;SDS011;57514;52.164;5.282;2023-04-01T12:50:43;13.13;;;6.03;;
70148;SDS011;57514;52.164;5.282;2023-04-01T12:53:28;12.85;;;5.88;;
70148;SDS011;57514;52.164;5.282;2023-04-01T12:56:02;13.55;;;5.70;;
70148;SDS011;57514;52.164;5.282;2023-04-01T12:58:38;13.25;;;5.82;;
70148;SDS011;57514;52.164;5.282;2023-04-01T13:14:21;10.88;;;5.28;;
70148;SDS011;57514;52.164;5.282;2023-04-01T13:17:07;12.52;;;5.38;;
70148;SDS011;57514;52.164;5.282;2023-04-01T13:19:39;12.02;;;4.60;;
70148;SDS011;57514;52.164;5.282;2023-04-01T13:25:18;12.38;;;4.72;;
70148;SDS011;57514;52.164;5.282;2023-04-01T13:27:51;12.70;;;5.20;;
70148;SDS011;57514;52.164;5.282;2023-04-01T13:41:40;9.02;;;3.03;;
70148;SDS011;57514;52.164;5.282;2023-04-01T13:44:14;7.95;;;3.20;;
70148;SDS011;57514;52.164;5.282;2023-04-01T13:46:47;8.25;;;3.03;;
70148;SDS011;57514;52.164;5.282;2023-04-01T13:52:45;7.55;;;3.25;;
70148;SDS011;57514;52.164;5.282;2023-04-01T13:57:19;9.32;;;3.70;;
70148;SDS011;57514;52.164;5.282;2023-04-01T14:05:37;11.15;;;4.18;;
70148;SDS011;57514;52.164;5.282;2023-04-01T14:08:16;10.23;;;4.50;;
70148;SDS011;57514;52.164;5.282;2023-04-01T14:18:25;10.93;;;4.55;;
70148;SDS011;57514;52.164;5.282;2023-04-01T14:21:16;13.52;;;5.32;;
70148;SDS011;57514;52.164;5.282;2023-04-01T14:23:51;11.75;;;4.88;;
70148;SDS011;57514;52.164;5.282;2023-04-01T14:34:34;10.82;;;4.80;;
70148;SDS011;57514;52.164;5.282;2023-04-01T14:52:31;9.05;;;3.58;;
70148;SDS011;57514;52.164;5.282;2023-04-01T14:55:03;8.82;;;3.67;;
70148;SDS011;57514;52.164;5.282;2023-04-01T14:57:42;9.73;;;3.83;;
70148;SDS011;57514;52.164;5.282;2023-04-01T15:00:24;8.77;;;3.60;;
70148;SDS011;57514;52.164;5.282;2023-04-01T15:02:58;8.68;;;3.50;;
70148;SDS011;57514;52.164;5.282;2023-04-01T15:05:43;8.63;;;3.45;;
70148;SDS011;57514;52.164;5.282;2023-04-01T15:18:15;9.30;;;4.55;;
70148;SDS011;57514;52.164;5.282;2023-04-01T15:20:55;7.00;;;3.00;;
70148;SDS011;57514;52.164;5.282;2023-04-01T15:31:16;9.38;;;4.38;;
70148;SDS011;57514;52.164;5.282;2023-04-01T15:39:20;9.40;;;4.00;;
70148;SDS011;57514;52.164;5.282;2023-04-01T16:00:09;6.78;;;2.88;;
70148;SDS011;57514;52.164;5.282;2023-04-01T16:13:30;7.78;;;3.47;;
70148;SDS011;57514;52.164;5.282;2023-04-01T16:21:34;5.60;;;2.97;;
70148;SDS011;57514;52.164;5.282;2023-04-01T16:24:04;6.32;;;3.10;;
70148;SDS011;57514;52.164;5.282;2023-04-01T16:26:44;6.28;;;2.70;;
70148;SDS011;57514;52.164;5.282;2023-04-01T16:34:38;6.75;;;3.38;;
70148;SDS011;57514;52.164;5.282;2023-04-01T16:37:10;6.45;;;2.90;;
70148;SDS011;57514;52.164;5.282;2023-04-01T16:48:01;6.78;;;3.30;;
70148;SDS011;57514;52.164;5.282;2023-04-01T16:50:43;7.10;;;2.90;;
70148;SDS011;57514;52.164;5.282;2023-04-01T16:58:39;9.55;;;4.10;;
70148;SDS011;57514;52.164;5.282;2023-04-01T17:01:12;8.95;;;3.90;;
70148;SDS011;57514;52.164;5.282;2023-04-01T17:03:44;10.70;;;4.32;;
70148;SDS011;57514;52.164;5.282;2023-04-01T17:11:16;8.75;;;3.30;;
70148;SDS011;57514;52.164;5.282;2023-04-01T17:13:46;8.95;;;3.33;;
70148;SDS011;57514;52.164;5.282;2023-04-01T17:24:27;5.47;;;3.17;;
70148;SDS011;57514;52.164;5.282;2023-04-01T17:29:26;6.18;;;3.03;;
70148;SDS011;57514;52.164;5.282;2023-04-01T17:34:46;6.70;;;3.20;;
70148;SDS011;57514;52.164;5.282;2023-04-01T17:42:48;7.32;;;3.00;;
70148;SDS011;57514;52.164;5.282;2023-04-01T17:48:17;8.25;;;4.07;;
70148;SDS011;57514;52.164;5.282;2023-04-01T17:50:59;8.15;;;3.97;;
70148;SDS011;57514;52.164;5.282;2023-04-01T17:53:39;7.70;;;3.25;;
70148;SDS011;57514;52.164;5.282;2023-04-01T18:02:01;7.55;;;2.95;;
70148;SDS011;57514;52.164;5.282;2023-04-01T18:22:48;8.38;;;3.58;;
70148;SDS011;57514;52.164;5.282;2023-04-01T18:27:50;7.85;;;3.33;;
70148;SDS011;57514;52.164;5.282;2023-04-01T18:30:37;9.20;;;4.43;;
70148;SDS011;57514;52.164;5.282;2023-04-01T18:33:16;9.10;;;3.40;;
70148;SDS011;57514;52.164;5.282;2023-04-01T18:35:56;8.25;;;3.67;;
70148;SDS011;57514;52.164;5.282;2023-04-01T18:38:31;9.20;;;4.90;;
70148;SDS011;57514;52.164;5.282;2023-04-01T18:43:34;9.18;;;4.75;;
70148;SDS011;57514;52.164;5.282;2023-04-01T18:49:16;10.13;;;4.13;;
70148;SDS011;57514;52.164;5.282;2023-04-01T18:51:46;9.93;;;5.35;;
70148;SDS011;57514;52.164;5.282;2023-04-01T18:56:49;8.73;;;4.28;;
70148;SDS011;57514;52.164;5.282;2023-04-01T19:01:49;11.13;;;5.97;;
70148;SDS011;57514;52.164;5.282;2023-04-01T19:04:40;9.80;;;5.38;;
70148;SDS011;57514;52.164;5.282;2023-04-01T19:09:54;9.52;;;4.28;;
70148;SDS011;57514;52.164;5.282;2023-04-01T19:17:54;10.85;;;6.60;;
70148;SDS011;57514;52.164;5.282;2023-04-01T19:20:37;11.88;;;6.72;;
70148;SDS011;57514;52.164;5.282;2023-04-01T19:23:22;11.45;;;6.88;;
70148;SDS011;57514;52.164;5.282;2023-04-01T19:25:57;9.80;;;4.95;;
70148;SDS011;57514;52.164;5.282;2023-04-01T19:28:38;11.27;;;6.03;;
70148;SDS011;57514;52.164;5.282;2023-04-01T19:31:24;11.63;;;6.53;;
70148;SDS011;57514;52.164;5.282;2023-04-01T19:38:53;11.52;;;5.63;;
70148;SDS011;57514;52.164;5.282;2023-04-01T19:46:51;12.65;;;5.93;;
70148;SDS011;57514;52.164;5.282;2023-04-01T20:05:39;12.27;;;5.95;;
70148;SDS011;57514;52.164;5.282;2023-04-01T20:08:00;12.88;;;5.95;;
70148;SDS011;57514;52.164;5.282;2023-04-01T20:10:39;12.23;;;6.32;;
70148;SDS011;57514;52.164;5.282;2023-04-01T20:15:45;12.70;;;7.03;;
70148;SDS011;57514;52.164;5.282;2023-04-01T20:18:15;13.43;;;5.90;;
70148;SDS011;57514;52.164;5.282;2023-04-01T20:20:57;12.10;;;6.05;;
70148;SDS011;57514;52.164;5.282;2023-04-01T20:23:43;11.98;;;6.05;;
70148;SDS011;57514;52.164;5.282;2023-04-01T20:26:12;13.63;;;6.68;;
70148;SDS011;57514;52.164;5.282;2023-04-01T20:29:02;14.02;;;7.45;;
70148;SDS011;57514;52.164;5.282;2023-04-01T20:31:31;14.35;;;7.68;;
70148;SDS011;57514;52.164;5.282;2023-04-01T20:43:57;16.00;;;7.78;;
70148;SDS011;57514;52.164;5.282;2023-04-01T20:49:10;16.83;;;7.47;;
70148;SDS011;57514;52.164;5.282;2023-04-01T20:52:45;12.05;;;6.65;;
70148;SDS011;57514;52.164;5.282;2023-04-01T20:54:49;11.30;;;5.40;;
70148;SDS011;57514;52.164;5.282;2023-04-01T21:07:53;9.77;;;4.05;;
70148;SDS011;57514;52.164;5.282;2023-04-01T21:15:48;11.40;;;4.95;;
70148;SDS011;57514;52.164;5.282;2023-04-01T21:23:52;10.27;;;5.22;;
70148;SDS011;57514;52.164;5.282;2023-04-01T21:26:26;10.75;;;4.70;;
70148;SDS011;57514;52.164;5.282;2023-04-01T21:31:53;11.95;;;6.75;;
70148;SDS011;57514;52.164;5.282;2023-04-01T21:46:56;11.45;;;6.10;;
70148;SDS011;57514;52.164;5.282;2023-04-01T21:52:38;12.02;;;5.60;;
70148;SDS011;57514;52.164;5.282;2023-04-01T22:05:56;13.18;;;6.57;;
70148;SDS011;57514;52.164;5.282;2023-04-01T22:11:08;14.38;;;6.63;;
70148;SDS011;57514;52.164;5.282;2023-04-01T22:13:41;13.02;;;6.72;;
70148;SDS011;57514;52.164;5.282;2023-04-01T22:16:22;13.13;;;6.90;;
70148;SDS011;57514;52.164;5.282;2023-04-01T22:18:56;12.73;;;6.32;;
70148;SDS011;57514;52.164;5.282;2023-04-01T22:21:29;12.77;;;7.10;;
70148;SDS011;57514;52.164;5.282;2023-04-01T22:26:40;15.40;;;7.07;;
70148;SDS011;57514;52.164;5.282;2023-04-01T22:29:20;14.27;;;7.45;;
70148;SDS011;57514;52.164;5.282;2023-04-01T22:31:55;15.00;;;7.25;;
70148;SDS011;57514;52.164;5.282;2023-04-01T22:37:03;14.48;;;7.57;;
70148;SDS011;57514;52.164;5.282;2023-04-01T22:42:25;14.38;;;6.90;;
70148;SDS011;57514;52.164;5.282;2023-04-01T22:52:45;15.13;;;8.18;;
70148;SDS011;57514;52.164;5.282;2023-04-01T22:55:20;13.90;;;7.60;;
70148;SDS011;57514;52.164;5.282;2023-04-01T22:57:50;14.55;;;7.93;;
70148;SDS011;57514;52.164;5.282;2023-04-01T23:00:39;13.80;;;8.15;;
70148;SDS011;57514;52.164;5.282;2023-04-01T23:05:54;15.70;;;8.07;;
70148;SDS011;57514;52.164;5.282;2023-04-01T23:10:53;15.85;;;8.35;;
70148;SDS011;57514;52.164;5.282;2023-04-01T23:13:22;16.13;;;8.50;;
70148;SDS011;57514;52.164;5.282;2023-04-01T23:15:53;16.58;;;9.25;;
70148;SDS011;57514;52.164;5.282;2023-04-01T23:18:33;18.23;;;8.98;;
70148;SDS011;57514;52.164;5.282;2023-04-01T23:21:08;17.48;;;8.02;;
70148;SDS011;57514;52.164;5.282;2023-04-01T23:26:31;16.42;;;9.02;;
70148;SDS011;57514;52.164;5.282;2023-04-01T23:28:59;16.23;;;7.97;;
70148;SDS011;57514;52.164;5.282;2023-04-01T23:31:31;18.90;;;8.30;;
70148;SDS011;57514;52.164;5.282;2023-04-01T23:34:00;16.60;;;8.02;;
70148;SDS011;57514;52.164;5.282;2023-04-01T23:36:29;14.98;;;8.18;;
70148;SDS011;57514;52.164;5.282;2023-04-01T23:39:03;17.35;;;9.43;;
70148;SDS011;57514;52.164;5.282;2023-04-01T23:41:31;18.00;;;8.23;;
70148;SDS011;57514;52.164;5.282;2023-04-01T23:44:04;16.48;;;7.68;;
70148;SDS011;57514;52.164;5.282;2023-04-01T23:46:32;17.02;;;7.05;;
70148;SDS011;57514;52.164;5.282;2023-04-01T23:49:02;18.73;;;9.52;;
70148;SDS011;57514;52.164;5.282;2023-04-01T23:51:37;15.48;;;8.45;;
70148;SDS011;57514;52.164;5.282;2023-04-01T23:54:13;19.50;;;7.63;;
70148;SDS011;57514;52.164;5.282;2023-04-01T23:56:42;16.05;;;8.55;;
70148;SDS011;57514;52.164;5.282;2023-04-01T23:59:14;14.98;;;7.43;;
